Time;durP1;ratioP1;P1;durP2;ratioP2;P2;SDS_P1;SDS_P2;PMS_P1;PMS_P2;Temp;Humidity;BMP_temperature;BMP_pressure;BME280_temperature;BME280_humidity;BME280_pressure;Samples;Min_cycle;Max_cycle;Signal;HPM_P1;HPM_P2
2023/01/09 00:00:51;;;;;;;1.00;0.70;;;;;;;;;;4962505;28;20412;-73
2023/01/09 00:03:24;;;;;;;0.50;0.40;;;;;;;;;;4958591;28;20050;-71
2023/01/09 00:05:49;;;;;;;0.40;0.40;;;;;;;;;;4952705;28;20126;-72
2023/01/09 00:08:16;;;;;;;0.20;0.20;;;;;;;;;;4967369;28;20047;-70
2023/01/09 00:10:41;;;;;;;0.40;0.30;;;;;;;;;;4964116;28;20537;-71
2023/01/09 00:13:12;;;;;;;0.52;0.40;;;;;;;;;;4961703;28;20073;-74
2023/01/09 00:15:40;;;;;;;0.60;0.30;;;;;;;;;;4955227;28;20055;-71
2023/01/09 00:18:06;;;;;;;0.52;0.30;;;;;;;;;;4957269;28;20050;-71
2023/01/09 00:20:31;;;;;;;0.30;0.30;;;;;;;;;;4962086;28;20350;-73
2023/01/09 00:22:57;;;;;;;0.70;0.40;;;;;;;;;;4976329;28;20051;-71
2023/01/09 00:25:23;;;;;;;1.40;0.40;;;;;;;;;;4958331;28;20070;-71
2023/01/09 00:27:49;;;;;;;0.88;0.40;;;;;;;;;;4960068;28;20113;-70
2023/01/09 00:30:15;;;;;;;0.30;0.30;;;;;;;;;;4953433;28;20054;-71
2023/01/09 00:32:41;;;;;;;0.43;0.38;;;;;;;;;;4952310;28;20055;-71
2023/01/09 00:35:12;;;;;;;0.30;0.30;;;;;;;;;;4957312;28;20835;-70
2023/01/09 00:37:38;;;;;;;0.30;0.30;;;;;;;;;;4961639;28;20516;-71
2023/01/09 00:40:05;;;;;;;3.47;0.30;;;;;;;;;;4960544;28;20038;-71
2023/01/09 00:42:33;;;;;;;0.52;0.30;;;;;;;;;;4959217;28;20043;-71
2023/01/09 00:45:02;;;;;;;0.65;0.47;;;;;;;;;;4963149;28;20054;-71
2023/01/09 00:47:34;;;;;;;0.30;0.20;;;;;;;;;;4955112;28;20057;-71
2023/01/09 00:50:04;;;;;;;2.08;0.43;;;;;;;;;;4963267;28;20042;-70
2023/01/09 00:52:34;;;;;;;0.45;0.40;;;;;;;;;;4961046;28;20046;-71
2023/01/09 00:55:02;;;;;;;0.77;0.70;;;;;;;;;;4955638;28;20055;-71
2023/01/09 00:57:28;;;;;;;1.23;0.43;;;;;;;;;;4961490;28;20046;-69
2023/01/09 00:59:54;;;;;;;1.83;0.40;;;;;;;;;;4953354;28;20177;-71
2023/01/09 01:02:20;;;;;;;0.47;0.47;;;;;;;;;;4959270;28;20128;-73
2023/01/09 01:07:41;;;;;;;0.40;0.40;;;;;;;;;;4961454;28;20082;-69
2023/01/09 01:10:16;;;;;;;0.35;0.35;;;;;;;;;;4963179;28;20376;-71
2023/01/09 01:12:43;;;;;;;0.93;0.50;;;;;;;;;;4959529;28;20543;-70
2023/01/09 01:15:09;;;;;;;0.50;0.40;;;;;;;;;;4952176;28;20479;-71
2023/01/09 01:17:37;;;;;;;1.33;0.40;;;;;;;;;;4961297;28;20043;-70
2023/01/09 01:20:06;;;;;;;0.45;0.40;;;;;;;;;;4957907;28;20192;-69
2023/01/09 01:22:32;;;;;;;0.40;0.40;;;;;;;;;;4960198;28;20054;-71
2023/01/09 01:24:58;;;;;;;0.40;0.40;;;;;;;;;;4956177;28;20493;-69
2023/01/09 01:27:24;;;;;;;0.55;0.35;;;;;;;;;;4958767;28;20082;-69
2023/01/09 01:29:51;;;;;;;0.73;0.38;;;;;;;;;;4954705;28;20054;-70
2023/01/09 01:32:17;;;;;;;1.80;0.70;;;;;;;;;;4961885;28;20748;-70
2023/01/09 01:34:43;;;;;;;0.90;0.63;;;;;;;;;;4956015;28;20060;-71
2023/01/09 01:37:09;;;;;;;0.40;0.40;;;;;;;;;;4952078;28;20349;-68
2023/01/09 01:39:35;;;;;;;0.88;0.47;;;;;;;;;;4958180;28;20043;-70
2023/01/09 01:42:04;;;;;;;0.60;0.38;;;;;;;;;;4953133;28;20054;-70
2023/01/09 01:44:54;;;;;;;0.30;0.30;;;;;;;;;;4961116;28;20135;-70
2023/01/09 01:47:32;;;;;;;0.38;0.38;;;;;;;;;;4954579;28;20117;-69
2023/01/09 01:50:00;;;;;;;0.40;0.40;;;;;;;;;;4955783;28;20050;-70
2023/01/09 01:52:28;;;;;;;0.13;0.13;;;;;;;;;;4953845;28;20481;-69
2023/01/09 01:54:54;;;;;;;0.47;0.20;;;;;;;;;;4959704;28;20047;-70
2023/01/09 01:57:20;;;;;;;0.43;0.35;;;;;;;;;;4955849;28;20050;-70
2023/01/09 01:59:51;;;;;;;0.22;0.20;;;;;;;;;;4957174;28;20051;-69
2023/01/09 02:02:21;;;;;;;2.05;0.40;;;;;;;;;;4958459;28;20074;-71
2023/01/09 02:04:50;;;;;;;0.43;0.43;;;;;;;;;;4952379;28;20043;-70
2023/01/09 02:07:16;;;;;;;0.52;0.30;;;;;;;;;;4960892;28;20083;-69
2023/01/09 02:09:43;;;;;;;0.30;0.30;;;;;;;;;;4951716;28;20055;-70
2023/01/09 02:12:19;;;;;;;0.20;0.20;;;;;;;;;;4958091;28;20175;-69
2023/01/09 02:14:47;;;;;;;1.75;0.40;;;;;;;;;;4954769;28;20083;-72
2023/01/09 02:17:48;;;;;;;1.55;0.40;;;;;;;;;;4957816;28;20524;-72
2023/01/09 02:20:14;;;;;;;0.43;0.20;;;;;;;;;;4955654;28;20401;-71
2023/01/09 02:23:09;;;;;;;0.30;0.30;;;;;;;;;;4959402;28;20545;-70
2023/01/09 02:25:53;;;;;;;;;;;;;;;;;;4959980;28;20229;-71
2023/01/09 02:29:00;;;;;;;0.88;0.22;;;;;;;;;;4959260;28;19926;-70
2023/01/09 02:31:41;;;;;;;0.30;0.30;;;;;;;;;;4949309;28;20070;-69
2023/01/09 02:34:17;;;;;;;0.30;0.30;;;;;;;;;;4947766;28;20056;-71
2023/01/09 02:36:52;;;;;;;0.25;0.25;;;;;;;;;;4948421;28;20117;-70
2023/01/09 02:39:26;;;;;;;0.20;0.20;;;;;;;;;;4953842;28;20061;-69
2023/01/09 02:42:17;;;;;;;0.98;0.38;;;;;;;;;;4955322;28;20059;-69
2023/01/09 02:44:43;;;;;;;0.52;0.20;;;;;;;;;;4956994;28;20058;-70
2023/01/09 02:47:15;;;;;;;0.50;0.22;;;;;;;;;;4956306;28;20066;-69
2023/01/09 02:50:29;;;;;;;0.52;0.30;;;;;;;;;;4953240;28;20055;-70
2023/01/09 02:53:26;;;;;;;0.25;0.20;;;;;;;;;;4862597;29;20049;-68
2023/01/09 02:56:07;;;;;;;1.00;0.40;;;;;;;;;;4853870;29;20139;-69
2023/01/09 02:58:42;;;;;;;0.52;0.28;;;;;;;;;;4862780;29;20053;-70
2023/01/09 03:01:31;;;;;;;1.25;0.32;;;;;;;;;;4861195;29;20109;-70
2023/01/09 03:04:08;;;;;;;0.40;0.13;;;;;;;;;;4863076;29;20260;-71
2023/01/09 03:07:07;;;;;;;0.38;0.20;;;;;;;;;;4863733;29;20234;-70
2023/01/09 03:09:36;;;;;;;1.85;0.32;;;;;;;;;;4863048;29;20060;-70
2023/01/09 03:12:17;;;;;;;0.40;0.30;;;;;;;;;;4863304;29;20065;-73
2023/01/09 03:14:47;;;;;;;0.88;0.30;;;;;;;;;;4868010;29;20049;-69
2023/01/09 03:17:18;;;;;;;0.20;0.20;;;;;;;;;;4866269;29;20060;-70
2023/01/09 03:19:45;;;;;;;0.43;0.30;;;;;;;;;;4866844;29;20093;-70
2023/01/09 03:22:11;;;;;;;0.35;0.30;;;;;;;;;;4867564;29;20061;-70
2023/01/09 03:24:37;;;;;;;0.32;0.22;;;;;;;;;;4862062;29;20049;-68
2023/01/09 03:27:07;;;;;;;0.10;0.10;;;;;;;;;;4866100;29;20052;-69
2023/01/09 03:29:33;;;;;;;0.20;0.20;;;;;;;;;;4957086;28;20232;-70
2023/01/09 03:31:59;;;;;;;2.30;0.30;;;;;;;;;;4955304;28;20055;-69
2023/01/09 03:34:24;;;;;;;0.20;0.20;;;;;;;;;;4953271;28;20050;-69
2023/01/09 03:36:51;;;;;;;0.95;0.30;;;;;;;;;;4958895;28;20070;-69
2023/01/09 03:39:16;;;;;;;0.40;0.30;;;;;;;;;;4953476;28;20070;-68
2023/01/09 03:41:43;;;;;;;0.90;0.10;;;;;;;;;;4957228;28;20052;-72
2023/01/09 03:44:08;;;;;;;1.10;0.32;;;;;;;;;;4948452;28;20090;-71
2023/01/09 03:46:34;;;;;;;0.38;0.30;;;;;;;;;;4954021;28;20059;-69
2023/01/09 03:49:01;;;;;;;0.35;0.13;;;;;;;;;;4962451;28;20198;-72
2023/01/09 03:51:27;;;;;;;0.35;0.10;;;;;;;;;;4958143;28;20046;-70
2023/01/09 03:53:53;;;;;;;0.52;0.20;;;;;;;;;;4957562;28;20125;-73
2023/01/09 03:56:19;;;;;;;0.17;0.10;;;;;;;;;;4952857;28;20123;-71
2023/01/09 03:58:45;;;;;;;2.28;0.30;;;;;;;;;;4957044;28;20863;-70
2023/01/09 04:01:13;;;;;;;0.52;0.30;;;;;;;;;;4953253;28;20047;-71
2023/01/09 04:03:39;;;;;;;0.20;0.20;;;;;;;;;;4951744;28;20046;-69
2023/01/09 04:06:06;;;;;;;0.20;0.20;;;;;;;;;;4953269;28;20109;-71
2023/01/09 04:08:32;;;;;;;0.95;0.20;;;;;;;;;;4956671;28;20039;-70
2023/01/09 04:10:58;;;;;;;0.20;0.17;;;;;;;;;;4956980;28;20114;-70
2023/01/09 04:13:24;;;;;;;0.35;0.30;;;;;;;;;;4957107;28;20051;-69
2023/01/09 04:15:50;;;;;;;0.85;0.30;;;;;;;;;;4956343;28;20057;-70
2023/01/09 04:18:15;;;;;;;0.55;0.55;;;;;;;;;;4956053;28;20039;-69
2023/01/09 04:20:41;;;;;;;0.13;0.13;;;;;;;;;;4949384;28;20102;-71
2023/01/09 04:23:07;;;;;;;0.55;0.30;;;;;;;;;;4953824;28;20038;-69
2023/01/09 04:25:34;;;;;;;0.30;0.20;;;;;;;;;;4952209;28;20752;-69
2023/01/09 04:27:59;;;;;;;0.30;0.25;;;;;;;;;;4954665;28;20043;-69
2023/01/09 04:30:25;;;;;;;0.43;0.30;;;;;;;;;;4953409;28;20059;-69
2023/01/09 04:32:51;;;;;;;1.20;0.30;;;;;;;;;;4956094;28;20587;-69
2023/01/09 04:35:18;;;;;;;0.30;0.20;;;;;;;;;;4950816;28;20084;-70
2023/01/09 04:37:44;;;;;;;0.40;0.30;;;;;;;;;;4958655;28;20122;-71
2023/01/09 04:40:11;;;;;;;0.30;0.30;;;;;;;;;;4968733;28;20559;-69
2023/01/09 04:42:38;;;;;;;0.20;0.20;;;;;;;;;;4953099;28;20066;-70
2023/01/09 04:45:06;;;;;;;0.85;0.30;;;;;;;;;;4952134;28;20685;-69
2023/01/09 04:47:32;;;;;;;0.20;0.10;;;;;;;;;;4948217;28;20460;-70
2023/01/09 04:49:58;;;;;;;0.38;0.30;;;;;;;;;;4952885;28;20512;-70
2023/01/09 04:52:24;;;;;;;1.42;0.30;;;;;;;;;;4954768;28;20070;-70
2023/01/09 04:54:50;;;;;;;0.43;0.30;;;;;;;;;;4952910;28;20071;-69
2023/01/09 04:57:16;;;;;;;0.40;0.40;;;;;;;;;;4955215;28;20520;-70
2023/01/09 04:59:42;;;;;;;1.42;0.30;;;;;;;;;;4955095;28;20051;-72
2023/01/09 05:02:09;;;;;;;0.60;0.20;;;;;;;;;;4951739;28;20053;-69
2023/01/09 05:04:35;;;;;;;0.82;0.30;;;;;;;;;;4961675;28;20105;-70
2023/01/09 05:07:01;;;;;;;0.70;0.38;;;;;;;;;;4954105;28;20043;-70
2023/01/09 05:09:27;;;;;;;0.25;0.20;;;;;;;;;;4950602;28;20047;-70
2023/01/09 05:11:53;;;;;;;0.30;0.30;;;;;;;;;;4956254;28;20051;-71
2023/01/09 05:14:19;;;;;;;1.90;0.40;;;;;;;;;;4952384;28;20449;-71
2023/01/09 05:16:45;;;;;;;0.35;0.28;;;;;;;;;;4955024;28;20054;-71
2023/01/09 05:19:11;;;;;;;0.20;0.20;;;;;;;;;;4955532;28;20047;-69
2023/01/09 05:21:37;;;;;;;0.20;0.20;;;;;;;;;;4951455;28;20149;-70
2023/01/09 05:24:03;;;;;;;2.40;0.50;;;;;;;;;;4952912;28;20066;-68
2023/01/09 05:26:29;;;;;;;0.40;0.30;;;;;;;;;;4952347;28;20533;-71
2023/01/09 05:28:55;;;;;;;0.20;0.20;;;;;;;;;;4953701;28;20051;-69
2023/01/09 05:31:22;;;;;;;0.40;0.35;;;;;;;;;;4953983;28;20054;-70
2023/01/09 05:33:48;;;;;;;1.23;0.40;;;;;;;;;;4950371;28;20070;-69
2023/01/09 05:36:14;;;;;;;1.27;0.25;;;;;;;;;;4949630;28;20069;-69
2023/01/09 05:38:40;;;;;;;2.28;0.30;;;;;;;;;;4953283;28;20051;-72
2023/01/09 05:41:06;;;;;;;0.52;0.22;;;;;;;;;;4952479;28;20040;-69
2023/01/09 05:43:33;;;;;;;0.28;0.28;;;;;;;;;;4952601;28;20043;-72
2023/01/09 05:45:59;;;;;;;1.17;0.40;;;;;;;;;;4954324;28;20047;-71
2023/01/09 05:48:25;;;;;;;0.52;0.22;;;;;;;;;;4950898;28;20070;-70
2023/01/09 05:50:51;;;;;;;2.10;0.50;;;;;;;;;;4953414;28;20269;-69
2023/01/09 05:53:17;;;;;;;1.27;0.40;;;;;;;;;;4948370;28;20054;-69
2023/01/09 05:55:43;;;;;;;0.80;0.57;;;;;;;;;;4951984;28;20570;-71
2023/01/09 05:58:09;;;;;;;0.68;0.30;;;;;;;;;;4950149;28;20050;-71
2023/01/09 06:00:35;;;;;;;0.68;0.40;;;;;;;;;;4962930;28;20170;-71
2023/01/09 06:03:01;;;;;;;0.77;0.50;;;;;;;;;;4947533;28;20056;-69
2023/01/09 06:05:26;;;;;;;1.55;0.75;;;;;;;;;;4953593;28;20038;-72
2023/01/09 06:07:52;;;;;;;3.95;1.92;;;;;;;;;;4952534;28;20418;-70
2023/01/09 06:10:18;;;;;;;1.05;0.70;;;;;;;;;;4949576;28;20066;-73
2023/01/09 06:12:49;;;;;;;2.58;0.52;;;;;;;;;;4957589;28;20055;-70
2023/01/09 06:15:16;;;;;;;0.50;0.50;;;;;;;;;;4944503;28;20051;-71
2023/01/09 06:17:42;;;;;;;0.45;0.40;;;;;;;;;;4946432;28;20047;-70
2023/01/09 06:20:09;;;;;;;1.63;0.63;;;;;;;;;;4946915;28;20388;-69
2023/01/09 06:22:36;;;;;;;0.40;0.30;;;;;;;;;;4945359;28;20078;-68
2023/01/09 06:25:02;;;;;;;2.45;0.57;;;;;;;;;;4950862;28;20413;-71
2023/01/09 06:27:28;;;;;;;0.50;0.30;;;;;;;;;;4948839;28;20051;-70
2023/01/09 06:29:54;;;;;;;0.32;0.32;;;;;;;;;;4946221;28;20133;-70
2023/01/09 06:32:20;;;;;;;0.65;0.40;;;;;;;;;;4948102;28;20051;-71
2023/01/09 06:34:47;;;;;;;2.22;0.70;;;;;;;;;;4943295;28;20070;-68
2023/01/09 06:37:13;;;;;;;0.70;0.43;;;;;;;;;;4951780;28;20046;-70
2023/01/09 06:39:39;;;;;;;0.98;0.50;;;;;;;;;;4950980;28;20561;-72
2023/01/09 06:42:05;;;;;;;0.40;0.40;;;;;;;;;;4950592;28;20043;-70
2023/01/09 06:44:32;;;;;;;1.50;0.55;;;;;;;;;;4950024;28;20051;-70
2023/01/09 06:46:58;;;;;;;0.93;0.30;;;;;;;;;;4944393;28;20070;-72
2023/01/09 06:49:24;;;;;;;1.40;0.30;;;;;;;;;;4947184;28;20594;-71
2023/01/09 06:51:50;;;;;;;3.22;0.40;;;;;;;;;;4975189;28;20043;-72
2023/01/09 06:54:17;;;;;;;0.82;0.50;;;;;;;;;;4952408;28;20238;-71
2023/01/09 06:56:44;;;;;;;0.73;0.45;;;;;;;;;;4959626;28;20723;-72
2023/01/09 06:59:10;;;;;;;2.08;0.47;;;;;;;;;;4956978;28;20058;-71
2023/01/09 07:01:38;;;;;;;0.63;0.43;;;;;;;;;;4946732;28;20054;-72
2023/01/09 07:04:09;;;;;;;2.08;0.68;;;;;;;;;;4950410;28;20062;-71
2023/01/09 07:06:35;;;;;;;0.55;0.38;;;;;;;;;;4955447;28;20081;-72
2023/01/09 07:09:02;;;;;;;1.00;0.57;;;;;;;;;;4950215;28;20051;-71
2023/01/09 07:11:28;;;;;;;0.45;0.40;;;;;;;;;;4956973;28;20046;-70
2023/01/09 07:13:53;;;;;;;1.30;0.60;;;;;;;;;;4956827;28;20050;-71
2023/01/09 07:16:20;;;;;;;2.22;0.50;;;;;;;;;;4961336;28;20058;-71
2023/01/09 07:18:45;;;;;;;0.77;0.45;;;;;;;;;;4952849;28;20408;-70
2023/01/09 07:21:11;;;;;;;1.13;0.57;;;;;;;;;;4956883;28;20051;-71
2023/01/09 07:23:37;;;;;;;0.95;0.43;;;;;;;;;;4947523;28;20046;-70
2023/01/09 07:26:03;;;;;;;0.35;0.30;;;;;;;;;;4948299;28;20051;-70
2023/01/09 07:28:29;;;;;;;1.50;0.60;;;;;;;;;;4952162;28;20054;-70
2023/01/09 07:30:57;;;;;;;1.50;0.57;;;;;;;;;;4954854;28;20362;-70
2023/01/09 07:33:23;;;;;;;1.25;0.70;;;;;;;;;;4953779;28;20090;-74
2023/01/09 07:35:50;;;;;;;4.90;0.80;;;;;;;;;;4952893;28;20047;-73
2023/01/09 07:38:16;;;;;;;1.38;0.70;;;;;;;;;;4949981;28;20051;-70
2023/01/09 07:40:42;;;;;;;1.35;0.63;;;;;;;;;;4951956;28;20050;-70
2023/01/09 07:43:08;;;;;;;1.98;0.90;;;;;;;;;;4954956;28;20055;-72
2023/01/09 07:45:34;;;;;;;2.80;1.20;;;;;;;;;;4955547;28;20585;-71
2023/01/09 07:47:59;;;;;;;8.07;1.00;;;;;;;;;;4961012;28;20066;-72
2023/01/09 07:50:25;;;;;;;4.35;0.90;;;;;;;;;;4963163;28;20066;-70
2023/01/09 07:52:51;;;;;;;1.95;0.82;;;;;;;;;;4956437;28;20054;-71
2023/01/09 07:55:17;;;;;;;2.05;0.80;;;;;;;;;;4957065;28;20061;-71
2023/01/09 07:57:47;;;;;;;2.97;0.80;;;;;;;;;;4956656;28;20341;-70
2023/01/09 08:00:14;;;;;;;3.97;1.20;;;;;;;;;;4949995;28;20162;-72
2023/01/09 08:02:40;;;;;;;5.43;0.80;;;;;;;;;;4962051;28;20047;-71
2023/01/09 08:05:07;;;;;;;2.35;1.00;;;;;;;;;;4951420;28;20054;-71
2023/01/09 08:07:34;;;;;;;5.70;1.20;;;;;;;;;;4952761;28;20047;-71
2023/01/09 08:10:00;;;;;;;1.95;0.80;;;;;;;;;;4959213;28;20505;-70
2023/01/09 08:12:26;;;;;;;4.13;1.40;;;;;;;;;;4954681;28;20039;-71
2023/01/09 08:14:51;;;;;;;2.72;1.00;;;;;;;;;;4952538;28;20055;-72
2023/01/09 08:17:17;;;;;;;5.95;1.05;;;;;;;;;;4958847;28;20059;-72
2023/01/09 08:19:43;;;;;;;8.98;1.45;;;;;;;;;;4970893;28;20585;-70
2023/01/09 08:22:09;;;;;;;2.83;0.70;;;;;;;;;;4956222;28;20449;-70
2023/01/09 08:24:35;;;;;;;2.45;0.70;;;;;;;;;;4959543;28;20129;-70
2023/01/09 08:27:02;;;;;;;2.17;0.80;;;;;;;;;;4953088;28;20051;-70
2023/01/09 08:29:29;;;;;;;3.05;0.90;;;;;;;;;;4960099;28;20054;-71
2023/01/09 08:31:55;;;;;;;2.58;0.80;;;;;;;;;;4951174;28;20504;-72
2023/01/09 08:34:21;;;;;;;1.88;1.00;;;;;;;;;;4958183;28;20067;-68
2023/01/09 08:36:48;;;;;;;2.38;0.70;;;;;;;;;;4949284;28;20409;-69
2023/01/09 08:39:13;;;;;;;1.13;0.73;;;;;;;;;;4959554;28;20054;-70
2023/01/09 08:47:09;;;;;;;1.10;0.65;;;;;;;;;;4954916;28;20055;-71
2023/01/09 08:49:37;;;;;;;0.88;0.65;;;;;;;;;;4953463;28;20050;-71
2023/01/09 08:52:04;;;;;;;1.10;0.80;;;;;;;;;;4961335;28;20385;-71
2023/01/09 08:54:30;;;;;;;3.67;0.82;;;;;;;;;;4959100;28;20578;-74
2023/01/09 08:56:56;;;;;;;1.13;0.80;;;;;;;;;;4954236;28;20054;-69
2023/01/09 08:59:22;;;;;;;0.88;0.70;;;;;;;;;;4962076;28;20038;-72
2023/01/09 09:01:49;;;;;;;3.70;0.98;;;;;;;;;;4953076;28;20505;-70
2023/01/09 09:04:15;;;;;;;1.15;1.00;;;;;;;;;;4958674;28;20139;-72
2023/01/09 09:06:41;;;;;;;8.50;1.13;;;;;;;;;;4950254;28;20124;-71
2023/01/09 09:09:06;;;;;;;2.78;1.10;;;;;;;;;;4948808;28;20055;-70
2023/01/09 09:11:33;;;;;;;2.05;0.80;;;;;;;;;;4953558;28;20713;-71
2023/01/09 09:13:59;;;;;;;4.28;0.90;;;;;;;;;;4955379;28;20097;-72
2023/01/09 09:16:26;;;;;;;2.63;0.85;;;;;;;;;;4952915;28;20158;-71
2023/01/09 09:18:52;;;;;;;4.72;0.82;;;;;;;;;;4949241;28;20182;-70
2023/01/09 09:21:19;;;;;;;1.38;0.60;;;;;;;;;;4953487;28;20047;-72
2023/01/09 09:23:45;;;;;;;0.68;0.50;;;;;;;;;;4950237;28;20043;-69
2023/01/09 09:26:11;;;;;;;0.93;0.50;;;;;;;;;;4950445;28;20051;-72
2023/01/09 09:28:37;;;;;;;1.25;0.77;;;;;;;;;;4952378;28;20057;-71
2023/01/09 09:31:05;;;;;;;3.40;1.02;;;;;;;;;;4949922;28;20067;-71
2023/01/09 09:33:30;;;;;;;8.43;1.20;;;;;;;;;;4949717;28;20047;-70
2023/01/09 09:35:59;;;;;;;3.28;0.80;;;;;;;;;;4951798;28;20055;-70
2023/01/09 09:38:25;;;;;;;2.65;1.05;;;;;;;;;;4956266;28;20039;-70
2023/01/09 09:44:41;;;;;;;2.72;0.90;;;;;;;;;;4953746;28;20146;-70
2023/01/09 09:44:45;;;;;;;2.00;0.68;;;;;;;;;;4946628;28;20129;-70
2023/01/09 09:47:29;;;;;;;2.05;0.73;;;;;;;;;;4905888;29;20048;-71
2023/01/09 09:50:32;;;;;;;1.10;0.52;;;;;;;;;;4905084;29;20067;-72
2023/01/09 09:53:37;;;;;;;5.13;1.00;;;;;;;;;;4911283;29;20051;-68
2023/01/09 09:56:04;;;;;;;0.73;0.60;;;;;;;;;;4903505;29;20199;-71
2023/01/09 09:58:44;;;;;;;2.92;0.65;;;;;;;;;;4895825;29;20103;-71
2023/01/09 10:01:18;;;;;;;1.58;0.80;;;;;;;;;;4909298;29;20048;-70
2023/01/09 10:03:58;;;;;;;1.38;0.60;;;;;;;;;;4900187;29;20075;-70
2023/01/09 10:06:30;;;;;;;2.13;0.60;;;;;;;;;;4905573;29;20048;-70
2023/01/09 10:09:31;;;;;;;8.73;0.70;;;;;;;;;;4903539;29;20214;-71
2023/01/09 10:12:02;;;;;;;6.15;1.00;;;;;;;;;;4899888;29;20494;-70
2023/01/09 10:14:29;;;;;;;1.55;0.65;;;;;;;;;;4903240;29;20055;-70
2023/01/09 10:17:03;;;;;;;2.13;0.70;;;;;;;;;;4905272;29;20060;-69
2023/01/09 10:20:00;;;;;;;4.72;0.68;;;;;;;;;;4902928;29;20344;-70
2023/01/09 10:22:43;;;;;;;2.75;0.50;;;;;;;;;;4902449;29;20139;-70
2023/01/09 10:25:15;;;;;;;2.20;0.90;;;;;;;;;;4954299;28;20054;-70
2023/01/09 10:27:53;;;;;;;3.13;1.17;;;;;;;;;;4953928;28;20047;-70
2023/01/09 10:30:43;;;;;;;5.00;0.98;;;;;;;;;;4951736;28;20092;-71
2023/01/09 10:33:39;;;;;;;1.75;0.65;;;;;;;;;;4960018;28;20053;-69
2023/01/09 10:36:20;;;;;;;2.30;0.80;;;;;;;;;;4955215;28;20055;-69
2023/01/09 10:38:51;;;;;;;1.75;0.40;;;;;;;;;;4954221;28;20035;-72
2023/01/09 10:41:24;;;;;;;0.88;0.50;;;;;;;;;;4950930;28;20484;-70
2023/01/09 10:43:55;;;;;;;1.45;0.50;;;;;;;;;;4962689;28;20063;-68
2023/01/09 10:46:37;;;;;;;1.30;0.52;;;;;;;;;;4953326;28;20577;-71
2023/01/09 10:49:13;;;;;;;0.65;0.50;;;;;;;;;;4952699;28;20122;-71
2023/01/09 10:52:11;;;;;;;3.97;0.50;;;;;;;;;;4958885;28;20074;-71
2023/01/09 10:54:59;;;;;;;2.95;0.70;;;;;;;;;;4949706;28;20055;-73
2023/01/09 10:57:40;;;;;;;1.45;0.40;;;;;;;;;;4954704;28;20240;-71
2023/01/09 11:00:07;;;;;;;3.83;0.65;;;;;;;;;;4955415;28;20051;-70
2023/01/09 11:02:35;;;;;;;0.88;0.50;;;;;;;;;;4958400;28;20522;-70
2023/01/09 11:05:01;;;;;;;1.48;0.90;;;;;;;;;;4954746;28;20784;-71
2023/01/09 11:07:34;;;;;;;2.33;0.68;;;;;;;;;;4963276;28;20260;-73
2023/01/09 11:10:07;;;;;;;1.37;0.60;;;;;;;;;;4950931;28;20165;-70
2023/01/09 11:12:34;;;;;;;1.35;0.60;;;;;;;;;;4962338;28;20320;-71
2023/01/09 11:15:15;;;;;;;1.70;0.68;;;;;;;;;;4966794;28;20484;-72
2023/01/09 11:17:42;;;;;;;1.08;0.65;;;;;;;;;;4958414;28;20513;-70
2023/01/09 11:20:11;;;;;;;1.27;0.60;;;;;;;;;;4951895;28;20402;-69
2023/01/09 11:22:49;;;;;;;1.98;0.50;;;;;;;;;;4952626;28;20102;-70
2023/01/09 11:25:17;;;;;;;2.78;0.70;;;;;;;;;;4956793;28;20051;-69
2023/01/09 11:28:03;;;;;;;1.65;0.60;;;;;;;;;;4957187;28;20054;-72
2023/01/09 11:30:32;;;;;;;1.50;0.88;;;;;;;;;;4954514;28;20051;-70
2023/01/09 11:32:59;;;;;;;0.90;0.60;;;;;;;;;;4962345;28;20057;-71
2023/01/09 11:35:30;;;;;;;2.20;0.68;;;;;;;;;;4953968;28;20054;-71
2023/01/09 11:38:04;;;;;;;0.77;0.50;;;;;;;;;;4954159;28;20054;-70
2023/01/09 11:40:36;;;;;;;3.05;0.50;;;;;;;;;;4957262;28;20047;-71
2023/01/09 11:43:12;;;;;;;4.55;0.80;;;;;;;;;;4954354;28;20047;-71
2023/01/09 11:45:44;;;;;;;0.98;0.30;;;;;;;;;;4955619;28;20051;-70
2023/01/09 11:48:28;;;;;;;1.60;1.00;;;;;;;;;;4951967;28;20057;-70
2023/01/09 11:50:57;;;;;;;1.58;0.50;;;;;;;;;;4966851;28;20349;-70
2023/01/09 11:53:25;;;;;;;3.30;0.57;;;;;;;;;;4961684;28;20046;-69
2023/01/09 11:56:10;;;;;;;4.22;0.50;;;;;;;;;;4952094;28;20410;-69
2023/01/09 11:58:37;;;;;;;1.77;0.60;;;;;;;;;;4952298;28;20047;-68
2023/01/09 12:01:33;;;;;;;0.70;0.70;;;;;;;;;;4954490;28;20047;-71
2023/01/09 12:04:18;;;;;;;1.83;0.80;;;;;;;;;;4953373;28;20504;-70
2023/01/09 12:07:08;;;;;;;1.08;0.55;;;;;;;;;;4958660;28;20136;-71
2023/01/09 12:09:42;;;;;;;0.47;0.47;;;;;;;;;;4960013;28;20658;-72
2023/01/09 12:12:28;;;;;;;0.80;0.50;;;;;;;;;;4961689;28;20055;-72
2023/01/09 12:15:23;;;;;;;2.95;0.70;;;;;;;;;;4953391;28;20055;-70
2023/01/09 12:18:23;;;;;;;1.13;0.52;;;;;;;;;;4948484;28;20049;-68
2023/01/09 12:21:10;;;;;;;1.92;0.82;;;;;;;;;;4954639;28;20058;-71
2023/01/09 12:24:04;;;;;;;1.30;0.55;;;;;;;;;;4961612;28;20047;-71
2023/01/09 12:26:35;;;;;;;3.10;0.47;;;;;;;;;;4960017;28;20042;-71
2023/01/09 12:29:19;;;;;;;2.90;0.47;;;;;;;;;;4959838;28;20043;-72
2023/01/09 12:31:45;;;;;;;;;;;;;;;;;;4955220;28;20129;-72
2023/01/09 12:34:39;;;;;;;1.13;0.50;;;;;;;;;;4956516;28;20438;-70
2023/01/09 12:37:43;;;;;;;1.52;0.60;;;;;;;;;;4958979;28;20055;-72
2023/01/09 12:40:15;;;;;;;1.33;0.70;;;;;;;;;;4957251;28;20457;-69
2023/01/09 12:43:20;;;;;;;3.33;0.50;;;;;;;;;;4955611;28;20088;-70
2023/01/09 12:45:51;;;;;;;5.07;0.60;;;;;;;;;;4951597;28;20373;-69
2023/01/09 12:48:55;;;;;;;1.90;0.60;;;;;;;;;;4954071;28;20488;-71
2023/01/09 12:51:36;;;;;;;0.95;0.60;;;;;;;;;;4952888;28;20141;-69
2023/01/09 12:54:05;;;;;;;3.35;0.60;;;;;;;;;;4959745;28;20051;-71
2023/01/09 12:56:39;;;;;;;3.13;0.63;;;;;;;;;;4958232;28;20042;-68
2023/01/09 12:59:29;;;;;;;3.17;0.80;;;;;;;;;;4957035;28;20065;-71
2023/01/09 13:02:22;;;;;;;2.15;0.57;;;;;;;;;;4957916;28;20049;-71
2023/01/09 13:04:59;;;;;;;1.05;0.45;;;;;;;;;;4968354;28;20055;-73
2023/01/09 13:07:41;;;;;;;2.20;0.60;;;;;;;;;;4955339;28;20141;-72
2023/01/09 13:10:29;;;;;;;1.48;0.60;;;;;;;;;;4964137;28;20084;-72
2023/01/09 13:12:57;;;;;;;1.52;0.68;;;;;;;;;;4951117;28;20051;-71
2023/01/09 13:15:35;;;;;;;2.05;0.60;;;;;;;;;;4953481;28;20047;-70
2023/01/09 13:18:09;;;;;;;12.55;0.70;;;;;;;;;;4943415;28;20082;-70
2023/01/09 13:20:42;;;;;;;1.40;0.50;;;;;;;;;;4948087;28;20062;-70
2023/01/09 13:23:17;;;;;;;3.80;0.65;;;;;;;;;;4952000;28;20074;-71
2023/01/09 13:25:48;;;;;;;1.40;0.50;;;;;;;;;;4962092;28;20050;-72
2023/01/09 13:28:21;;;;;;;2.42;0.50;;;;;;;;;;4955225;28;20051;-71
2023/01/09 13:31:13;;;;;;;2.13;0.53;;;;;;;;;;4964510;28;20121;-69
2023/01/09 13:33:43;;;;;;;1.23;0.60;;;;;;;;;;4947638;28;20035;-69
2023/01/09 13:36:27;;;;;;;0.77;0.50;;;;;;;;;;4962079;28;20058;-72
2023/01/09 13:38:55;;;;;;;0.70;0.70;;;;;;;;;;4955735;28;20055;-71
2023/01/09 13:44:27;;;;;;;1.48;0.70;;;;;;;;;;4954121;28;20047;-70
2023/01/09 13:46:57;;;;;;;1.30;0.47;;;;;;;;;;4957172;28;20058;-70
2023/01/09 13:49:51;;;;;;;0.82;0.50;;;;;;;;;;4959774;28;20079;-70
2023/01/09 13:52:23;;;;;;;1.52;0.70;;;;;;;;;;4946875;28;20058;-72
2023/01/09 13:54:54;;;;;;;0.93;0.70;;;;;;;;;;4951287;28;20046;-70
2023/01/09 13:57:33;;;;;;;0.98;0.57;;;;;;;;;;4958684;28;20055;-73
2023/01/09 14:00:11;;;;;;;1.38;0.60;;;;;;;;;;4955622;28;20408;-69
2023/01/09 14:02:37;;;;;;;2.05;0.65;;;;;;;;;;4960209;28;20086;-72
2023/01/09 14:05:09;;;;;;;6.82;1.35;;;;;;;;;;4956323;28;20070;-70
2023/01/09 14:07:48;;;;;;;7.70;1.30;;;;;;;;;;4953780;28;20065;-69
2023/01/09 14:10:27;;;;;;;4.70;1.10;;;;;;;;;;4955356;28;20082;-70
2023/01/09 14:12:55;;;;;;;8.20;2.03;;;;;;;;;;4956156;28;20106;-71
2023/01/09 14:15:38;;;;;;;2.28;1.13;;;;;;;;;;4951015;28;20045;-72
2023/01/09 14:18:16;;;;;;;3.95;1.33;;;;;;;;;;4953388;28;20047;-70
2023/01/09 14:20:54;;;;;;;9.25;1.35;;;;;;;;;;4958460;28;20066;-69
2023/01/09 14:23:34;;;;;;;3.08;1.02;;;;;;;;;;4947444;28;20055;-71
2023/01/09 14:26:01;;;;;;;2.75;1.00;;;;;;;;;;4947362;28;20806;-72
2023/01/09 14:28:29;;;;;;;5.53;1.35;;;;;;;;;;4960244;28;20122;-70
2023/01/09 14:30:58;;;;;;;5.25;1.00;;;;;;;;;;4956935;28;20138;-74
2023/01/09 14:33:28;;;;;;;12.73;1.40;;;;;;;;;;4951126;28;20042;-70
2023/01/09 14:36:03;;;;;;;7.53;1.50;;;;;;;;;;4953381;28;20051;-71
2023/01/09 14:38:52;;;;;;;8.57;1.60;;;;;;;;;;4954475;28;20046;-71
2023/01/09 14:44:29;;;;;;;3.30;1.23;;;;;;;;;;4956102;28;20507;-70
2023/01/09 14:47:00;;;;;;;6.05;1.40;;;;;;;;;;4953000;28;20234;-72
2023/01/09 14:49:36;;;;;;;3.85;1.17;;;;;;;;;;4953551;28;20405;-69
2023/01/09 14:52:14;;;;;;;5.90;1.20;;;;;;;;;;4956884;28;20045;-73
2023/01/09 14:54:42;;;;;;;5.75;1.50;;;;;;;;;;4954499;28;20054;-69
2023/01/09 14:57:24;;;;;;;2.63;1.25;;;;;;;;;;4956250;28;20079;-70
2023/01/09 14:59:56;;;;;;;5.18;1.00;;;;;;;;;;4959079;28;20069;-70
2023/01/09 15:02:23;;;;;;;5.63;1.30;;;;;;;;;;4958611;28;20046;-69
2023/01/09 15:04:49;;;;;;;4.32;1.30;;;;;;;;;;4957842;28;20051;-70
2023/01/09 15:07:22;;;;;;;6.30;1.38;;;;;;;;;;4962396;28;20160;-69
2023/01/09 15:09:48;;;;;;;12.95;1.50;;;;;;;;;;4964714;28;20134;-71
2023/01/09 15:12:22;;;;;;;5.15;1.50;;;;;;;;;;4956296;28;20125;-72
2023/01/09 15:14:54;;;;;;;5.22;1.40;;;;;;;;;;4957531;28;20050;-70
2023/01/09 15:17:30;;;;;;;6.03;1.42;;;;;;;;;;4963411;28;20039;-70
2023/01/09 15:20:04;;;;;;;5.47;1.35;;;;;;;;;;4954398;28;20046;-72
2023/01/09 15:22:36;;;;;;;4.32;1.65;;;;;;;;;;4949432;28;20039;-67
2023/01/09 15:25:36;;;;;;;12.20;1.58;;;;;;;;;;4955780;28;20058;-77